sensor_id;sensor_type;location;lat;lon;timestamp;P1;durP1;ratioP1;P2;durP2;ratioP2
12145;SDS011;6136;47.032;15.398;2023-07-13T00:00:47;0.85;;;0.85;;
12145;SDS011;6136;47.032;15.398;2023-07-13T00:03:15;1.67;;;1.02;;
12145;SDS011;6136;47.032;15.398;2023-07-13T00:05:43;1.20;;;1.10;;
12145;SDS011;6136;47.032;15.398;2023-07-13T00:08:12;3.08;;;1.17;;
12145;SDS011;6136;47.032;15.398;2023-07-13T00:10:40;1.05;;;1.02;;
12145;SDS011;6136;47.032;15.398;2023-07-13T00:13:10;1.88;;;1.08;;
12145;SDS011;6136;47.032;15.398;2023-07-13T00:15:38;3.85;;;1.10;;
12145;SDS011;6136;47.032;15.398;2023-07-13T00:18:06;1.70;;;1.10;;
12145;SDS011;6136;47.032;15.398;2023-07-13T00:20:34;1.27;;;1.10;;
12145;SDS011;6136;47.032;15.398;2023-07-13T00:23:03;1.17;;;1.08;;
12145;SDS011;6136;47.032;15.398;2023-07-13T00:25:31;1.13;;;0.98;;
12145;SDS011;6136;47.032;15.398;2023-07-13T00:27:59;1.70;;;1.45;;
12145;SDS011;6136;47.032;15.398;2023-07-13T00:30:28;1.17;;;1.10;;
12145;SDS011;6136;47.032;15.398;2023-07-13T00:32:57;1.38;;;1.08;;
12145;SDS011;6136;47.032;15.398;2023-07-13T00:35:43;1.30;;;1.17;;
12145;SDS011;6136;47.032;15.398;2023-07-13T00:38:11;3.05;;;1.17;;
12145;SDS011;6136;47.032;15.398;2023-07-13T00:40:39;1.05;;;1.05;;
12145;SDS011;6136;47.032;15.398;2023-07-13T00:43:09;1.58;;;1.02;;
12145;SDS011;6136;47.032;15.398;2023-07-13T00:48:47;1.00;;;0.98;;
12145;SDS011;6136;47.032;15.398;2023-07-13T00:51:18;1.10;;;1.10;;
12145;SDS011;6136;47.032;15.398;2023-07-13T00:53:52;1.23;;;1.13;;
12145;SDS011;6136;47.032;15.398;2023-07-13T00:56:22;1.33;;;1.23;;
12145;SDS011;6136;47.032;15.398;2023-07-13T00:58:51;1.13;;;1.00;;
12145;SDS011;6136;47.032;15.398;2023-07-13T01:01:20;3.58;;;1.30;;
12145;SDS011;6136;47.032;15.398;2023-07-13T01:03:50;2.88;;;1.30;;
12145;SDS011;6136;47.032;15.398;2023-07-13T01:06:18;1.15;;;1.10;;
12145;SDS011;6136;47.032;15.398;2023-07-13T01:08:46;1.85;;;1.40;;
12145;SDS011;6136;47.032;15.398;2023-07-13T01:11:18;2.25;;;1.58;;
12145;SDS011;6136;47.032;15.398;2023-07-13T01:13:47;3.35;;;1.20;;
12145;SDS011;6136;47.032;15.398;2023-07-13T01:16:19;1.33;;;1.23;;
12145;SDS011;6136;47.032;15.398;2023-07-13T01:18:53;1.25;;;1.00;;
12145;SDS011;6136;47.032;15.398;2023-07-13T01:21:25;1.63;;;1.20;;
12145;SDS011;6136;47.032;15.398;2023-07-13T01:23:54;2.78;;;1.25;;
12145;SDS011;6136;47.032;15.398;2023-07-13T01:26:23;3.13;;;1.45;;
12145;SDS011;6136;47.032;15.398;2023-07-13T01:28:51;3.90;;;1.80;;
12145;SDS011;6136;47.032;15.398;2023-07-13T01:31:19;1.80;;;1.40;;
12145;SDS011;6136;47.032;15.398;2023-07-13T01:33:47;1.65;;;1.20;;
12145;SDS011;6136;47.032;15.398;2023-07-13T01:36:15;2.55;;;1.50;;
12145;SDS011;6136;47.032;15.398;2023-07-13T01:38:45;2.63;;;1.50;;
12145;SDS011;6136;47.032;15.398;2023-07-13T01:41:13;2.80;;;1.58;;
12145;SDS011;6136;47.032;15.398;2023-07-13T01:43:41;1.75;;;1.65;;
12145;SDS011;6136;47.032;15.398;2023-07-13T01:46:09;3.25;;;1.60;;
12145;SDS011;6136;47.032;15.398;2023-07-13T01:48:49;2.17;;;1.90;;
12145;SDS011;6136;47.032;15.398;2023-07-13T01:51:18;3.40;;;1.70;;
12145;SDS011;6136;47.032;15.398;2023-07-13T01:53:48;4.07;;;1.50;;
12145;SDS011;6136;47.032;15.398;2023-07-13T01:56:16;4.70;;;2.10;;
12145;SDS011;6136;47.032;15.398;2023-07-13T01:58:45;3.47;;;2.10;;
12145;SDS011;6136;47.032;15.398;2023-07-13T02:01:14;2.38;;;1.67;;
12145;SDS011;6136;47.032;15.398;2023-07-13T02:03:42;1.73;;;1.30;;
12145;SDS011;6136;47.032;15.398;2023-07-13T02:06:10;4.53;;;1.75;;
12145;SDS011;6136;47.032;15.398;2023-07-13T02:08:40;3.10;;;1.45;;
12145;SDS011;6136;47.032;15.398;2023-07-13T02:11:10;2.65;;;1.40;;
12145;SDS011;6136;47.032;15.398;2023-07-13T02:13:39;1.83;;;1.58;;
12145;SDS011;6136;47.032;15.398;2023-07-13T02:16:07;2.38;;;1.42;;
12145;SDS011;6136;47.032;15.398;2023-07-13T02:18:36;2.03;;;1.65;;
12145;SDS011;6136;47.032;15.398;2023-07-13T02:21:04;2.55;;;1.25;;
12145;SDS011;6136;47.032;15.398;2023-07-13T02:23:32;2.92;;;1.80;;
12145;SDS011;6136;47.032;15.398;2023-07-13T02:26:01;2.90;;;1.67;;
12145;SDS011;6136;47.032;15.398;2023-07-13T02:28:32;1.80;;;1.70;;
12145;SDS011;6136;47.032;15.398;2023-07-13T02:31:04;3.15;;;1.70;;
12145;SDS011;6136;47.032;15.398;2023-07-13T02:33:33;1.58;;;1.48;;
12145;SDS011;6136;47.032;15.398;2023-07-13T02:36:01;3.40;;;2.13;;
12145;SDS011;6136;47.032;15.398;2023-07-13T02:38:32;1.55;;;1.40;;
12145;SDS011;6136;47.032;15.398;2023-07-13T02:41:01;2.03;;;1.63;;
12145;SDS011;6136;47.032;15.398;2023-07-13T02:43:30;2.00;;;1.90;;
12145;SDS011;6136;47.032;15.398;2023-07-13T02:46:00;1.55;;;1.40;;
12145;SDS011;6136;47.032;15.398;2023-07-13T02:48:34;3.95;;;1.70;;
12145;SDS011;6136;47.032;15.398;2023-07-13T02:51:04;4.85;;;2.15;;
12145;SDS011;6136;47.032;15.398;2023-07-13T02:53:32;2.17;;;1.98;;
12145;SDS011;6136;47.032;15.398;2023-07-13T02:56:03;3.85;;;2.25;;
12145;SDS011;6136;47.032;15.398;2023-07-13T02:58:31;2.42;;;2.08;;
12145;SDS011;6136;47.032;15.398;2023-07-13T03:01:07;5.20;;;2.70;;
12145;SDS011;6136;47.032;15.398;2023-07-13T03:03:36;5.60;;;2.40;;
12145;SDS011;6136;47.032;15.398;2023-07-13T03:06:05;5.38;;;2.60;;
12145;SDS011;6136;47.032;15.398;2023-07-13T03:08:43;3.72;;;2.33;;
12145;SDS011;6136;47.032;15.398;2023-07-13T03:11:13;2.10;;;2.00;;
12145;SDS011;6136;47.032;15.398;2023-07-13T03:13:44;2.33;;;1.73;;
12145;SDS011;6136;47.032;15.398;2023-07-13T03:16:14;4.55;;;2.03;;
12145;SDS011;6136;47.032;15.398;2023-07-13T03:18:47;2.10;;;1.90;;
12145;SDS011;6136;47.032;15.398;2023-07-13T03:21:16;3.63;;;2.13;;
12145;SDS011;6136;47.032;15.398;2023-07-13T03:23:44;2.20;;;1.92;;
12145;SDS011;6136;47.032;15.398;2023-07-13T03:26:14;2.08;;;1.90;;
12145;SDS011;6136;47.032;15.398;2023-07-13T03:28:45;1.70;;;1.60;;
12145;SDS011;6136;47.032;15.398;2023-07-13T03:31:22;2.60;;;1.90;;
12145;SDS011;6136;47.032;15.398;2023-07-13T03:33:52;2.78;;;1.80;;
12145;SDS011;6136;47.032;15.398;2023-07-13T03:36:21;2.92;;;1.50;;
12145;SDS011;6136;47.032;15.398;2023-07-13T03:38:55;8.23;;;1.83;;
12145;SDS011;6136;47.032;15.398;2023-07-13T03:41:32;3.50;;;2.17;;
12145;SDS011;6136;47.032;15.398;2023-07-13T03:44:01;2.17;;;2.00;;
12145;SDS011;6136;47.032;15.398;2023-07-13T03:46:31;5.90;;;1.83;;
12145;SDS011;6136;47.032;15.398;2023-07-13T03:49:01;3.55;;;2.05;;
12145;SDS011;6136;47.032;15.398;2023-07-13T03:51:29;2.55;;;2.00;;
12145;SDS011;6136;47.032;15.398;2023-07-13T03:53:57;7.07;;;2.38;;
12145;SDS011;6136;47.032;15.398;2023-07-13T03:56:26;2.33;;;2.13;;
12145;SDS011;6136;47.032;15.398;2023-07-13T03:58:55;2.47;;;2.03;;
12145;SDS011;6136;47.032;15.398;2023-07-13T04:01:23;5.10;;;2.20;;
12145;SDS011;6136;47.032;15.398;2023-07-13T04:03:53;3.58;;;1.85;;
12145;SDS011;6136;47.032;15.398;2023-07-13T04:06:25;1.75;;;1.65;;
12145;SDS011;6136;47.032;15.398;2023-07-13T04:08:56;3.60;;;2.10;;
12145;SDS011;6136;47.032;15.398;2023-07-13T04:11:27;1.75;;;1.65;;
12145;SDS011;6136;47.032;15.398;2023-07-13T04:13:58;3.03;;;2.28;;
12145;SDS011;6136;47.032;15.398;2023-07-13T04:16:27;1.90;;;1.70;;
12145;SDS011;6136;47.032;15.398;2023-07-13T04:18:57;4.85;;;2.15;;
12145;SDS011;6136;47.032;15.398;2023-07-13T04:21:27;3.05;;;1.80;;
12145;SDS011;6136;47.032;15.398;2023-07-13T04:23:57;1.77;;;1.67;;
12145;SDS011;6136;47.032;15.398;2023-07-13T04:26:25;2.50;;;1.98;;
12145;SDS011;6136;47.032;15.398;2023-07-13T04:28:53;7.03;;;2.22;;
12145;SDS011;6136;47.032;15.398;2023-07-13T04:31:22;3.33;;;1.95;;
12145;SDS011;6136;47.032;15.398;2023-07-13T04:33:50;4.60;;;2.08;;
12145;SDS011;6136;47.032;15.398;2023-07-13T04:36:21;2.28;;;2.00;;
12145;SDS011;6136;47.032;15.398;2023-07-13T04:38:49;2.28;;;2.08;;
12145;SDS011;6136;47.032;15.398;2023-07-13T04:41:18;4.13;;;2.05;;
12145;SDS011;6136;47.032;15.398;2023-07-13T04:43:46;1.80;;;1.70;;
12145;SDS011;6136;47.032;15.398;2023-07-13T04:46:15;2.65;;;2.13;;
12145;SDS011;6136;47.032;15.398;2023-07-13T04:48:45;3.92;;;1.83;;
12145;SDS011;6136;47.032;15.398;2023-07-13T04:51:14;3.20;;;1.80;;
12145;SDS011;6136;47.032;15.398;2023-07-13T04:53:44;2.30;;;1.95;;
12145;SDS011;6136;47.032;15.398;2023-07-13T04:56:12;3.67;;;2.10;;
12145;SDS011;6136;47.032;15.398;2023-07-13T04:58:40;2.50;;;2.10;;
12145;SDS011;6136;47.032;15.398;2023-07-13T05:01:09;2.83;;;2.08;;
12145;SDS011;6136;47.032;15.398;2023-07-13T05:03:38;3.28;;;1.83;;
12145;SDS011;6136;47.032;15.398;2023-07-13T05:06:07;2.03;;;1.90;;
12145;SDS011;6136;47.032;15.398;2023-07-13T05:08:37;3.38;;;1.95;;
12145;SDS011;6136;47.032;15.398;2023-07-13T05:11:06;2.58;;;2.05;;
12145;SDS011;6136;47.032;15.398;2023-07-13T05:13:35;2.60;;;1.92;;
12145;SDS011;6136;47.032;15.398;2023-07-13T05:16:04;2.38;;;2.17;;
12145;SDS011;6136;47.032;15.398;2023-07-13T05:18:34;1.92;;;1.70;;
12145;SDS011;6136;47.032;15.398;2023-07-13T05:21:04;3.38;;;2.17;;
12145;SDS011;6136;47.032;15.398;2023-07-13T05:23:35;2.40;;;2.17;;
12145;SDS011;6136;47.032;15.398;2023-07-13T05:26:04;1.85;;;1.75;;
12145;SDS011;6136;47.032;15.398;2023-07-13T05:28:36;3.00;;;2.05;;
12145;SDS011;6136;47.032;15.398;2023-07-13T05:31:06;3.83;;;2.10;;
12145;SDS011;6136;47.032;15.398;2023-07-13T05:33:36;4.68;;;2.20;;
12145;SDS011;6136;47.032;15.398;2023-07-13T05:36:04;2.50;;;2.17;;
12145;SDS011;6136;47.032;15.398;2023-07-13T05:38:33;2.53;;;1.90;;
12145;SDS011;6136;47.032;15.398;2023-07-13T05:41:01;2.17;;;1.95;;
12145;SDS011;6136;47.032;15.398;2023-07-13T05:43:31;4.50;;;2.08;;
12145;SDS011;6136;47.032;15.398;2023-07-13T05:46:01;2.28;;;1.90;;
12145;SDS011;6136;47.032;15.398;2023-07-13T05:48:29;3.45;;;1.90;;
12145;SDS011;6136;47.032;15.398;2023-07-13T05:50:57;2.55;;;1.92;;
12145;SDS011;6136;47.032;15.398;2023-07-13T05:53:25;2.05;;;1.90;;
12145;SDS011;6136;47.032;15.398;2023-07-13T05:55:53;2.65;;;2.20;;
12145;SDS011;6136;47.032;15.398;2023-07-13T05:58:25;2.72;;;2.08;;
12145;SDS011;6136;47.032;15.398;2023-07-13T06:00:58;2.78;;;1.90;;
12145;SDS011;6136;47.032;15.398;2023-07-13T06:03:30;2.00;;;1.77;;
12145;SDS011;6136;47.032;15.398;2023-07-13T06:05:58;3.58;;;2.03;;
12145;SDS011;6136;47.032;15.398;2023-07-13T06:08:27;1.85;;;1.75;;
12145;SDS011;6136;47.032;15.398;2023-07-13T06:11:01;3.65;;;2.00;;
12145;SDS011;6136;47.032;15.398;2023-07-13T06:13:30;2.05;;;1.80;;
12145;SDS011;6136;47.032;15.398;2023-07-13T06:15:58;2.00;;;1.75;;
12145;SDS011;6136;47.032;15.398;2023-07-13T06:18:28;2.08;;;1.63;;
12145;SDS011;6136;47.032;15.398;2023-07-13T06:20:56;2.03;;;1.70;;
12145;SDS011;6136;47.032;15.398;2023-07-13T06:23:24;1.73;;;1.63;;
12145;SDS011;6136;47.032;15.398;2023-07-13T06:25:52;2.20;;;1.60;;
12145;SDS011;6136;47.032;15.398;2023-07-13T06:28:20;2.05;;;1.73;;
12145;SDS011;6136;47.032;15.398;2023-07-13T06:30:49;3.88;;;1.63;;
12145;SDS011;6136;47.032;15.398;2023-07-13T06:33:17;2.60;;;1.40;;
12145;SDS011;6136;47.032;15.398;2023-07-13T06:35:46;3.28;;;1.55;;
12145;SDS011;6136;47.032;15.398;2023-07-13T06:38:14;1.60;;;1.50;;
12145;SDS011;6136;47.032;15.398;2023-07-13T06:40:43;2.17;;;1.67;;
12145;SDS011;6136;47.032;15.398;2023-07-13T06:43:11;3.35;;;1.40;;
12145;SDS011;6136;47.032;15.398;2023-07-13T06:45:40;2.88;;;1.45;;
12145;SDS011;6136;47.032;15.398;2023-07-13T06:48:09;1.80;;;1.50;;
12145;SDS011;6136;47.032;15.398;2023-07-13T06:50:38;1.58;;;1.48;;
12145;SDS011;6136;47.032;15.398;2023-07-13T06:53:07;1.40;;;1.20;;
12145;SDS011;6136;47.032;15.398;2023-07-13T06:55:35;1.55;;;1.45;;
12145;SDS011;6136;47.032;15.398;2023-07-13T06:58:03;1.40;;;1.30;;
12145;SDS011;6136;47.032;15.398;2023-07-13T07:00:32;2.13;;;1.42;;
12145;SDS011;6136;47.032;15.398;2023-07-13T07:03:01;1.55;;;1.30;;
12145;SDS011;6136;47.032;15.398;2023-07-13T07:05:29;1.65;;;1.55;;
12145;SDS011;6136;47.032;15.398;2023-07-13T07:07:57;1.45;;;1.35;;
12145;SDS011;6136;47.032;15.398;2023-07-13T07:10:28;2.53;;;1.10;;
12145;SDS011;6136;47.032;15.398;2023-07-13T07:12:57;1.50;;;1.40;;
12145;SDS011;6136;47.032;15.398;2023-07-13T07:15:25;2.50;;;1.13;;
12145;SDS011;6136;47.032;15.398;2023-07-13T07:17:54;1.50;;;1.40;;
12145;SDS011;6136;47.032;15.398;2023-07-13T07:20:22;0.95;;;0.90;;
12145;SDS011;6136;47.032;15.398;2023-07-13T07:22:51;1.50;;;1.40;;
12145;SDS011;6136;47.032;15.398;2023-07-13T07:25:19;1.65;;;1.45;;
12145;SDS011;6136;47.032;15.398;2023-07-13T07:27:49;1.65;;;1.30;;
12145;SDS011;6136;47.032;15.398;2023-07-13T07:30:20;1.20;;;1.10;;
12145;SDS011;6136;47.032;15.398;2023-07-13T07:32:51;1.48;;;1.38;;
12145;SDS011;6136;47.032;15.398;2023-07-13T07:35:22;1.52;;;1.42;;
12145;SDS011;6136;47.032;15.398;2023-07-13T07:37:51;2.13;;;1.23;;
12145;SDS011;6136;47.032;15.398;2023-07-13T07:40:19;1.60;;;1.50;;
12145;SDS011;6136;47.032;15.398;2023-07-13T07:42:51;1.50;;;1.40;;
12145;SDS011;6136;47.032;15.398;2023-07-13T07:45:20;1.63;;;1.42;;
12145;SDS011;6136;47.032;15.398;2023-07-13T07:47:48;1.33;;;1.23;;
12145;SDS011;6136;47.032;15.398;2023-07-13T07:50:17;1.75;;;1.42;;
12145;SDS011;6136;47.032;15.398;2023-07-13T07:52:46;2.67;;;1.27;;
12145;SDS011;6136;47.032;15.398;2023-07-13T07:55:14;2.78;;;1.40;;
12145;SDS011;6136;47.032;15.398;2023-07-13T07:57:45;1.65;;;1.40;;
12145;SDS011;6136;47.032;15.398;2023-07-13T08:00:18;1.77;;;1.33;;
12145;SDS011;6136;47.032;15.398;2023-07-13T08:02:49;1.10;;;1.10;;
12145;SDS011;6136;47.032;15.398;2023-07-13T08:05:20;1.23;;;1.13;;
12145;SDS011;6136;47.032;15.398;2023-07-13T08:08:02;1.42;;;1.23;;
12145;SDS011;6136;47.032;15.398;2023-07-13T08:10:30;1.20;;;1.10;;
12145;SDS011;6136;47.032;15.398;2023-07-13T08:12:59;1.48;;;1.38;;
12145;SDS011;6136;47.032;15.398;2023-07-13T08:15:31;1.50;;;1.40;;
12145;SDS011;6136;47.032;15.398;2023-07-13T08:17:59;2.05;;;1.45;;
12145;SDS011;6136;47.032;15.398;2023-07-13T08:20:27;1.42;;;1.30;;
12145;SDS011;6136;47.032;15.398;2023-07-13T08:22:55;2.03;;;1.35;;
12145;SDS011;6136;47.032;15.398;2023-07-13T08:25:24;1.30;;;1.20;;
12145;SDS011;6136;47.032;15.398;2023-07-13T08:27:52;2.50;;;1.17;;
12145;SDS011;6136;47.032;15.398;2023-07-13T08:30:20;1.38;;;1.02;;
12145;SDS011;6136;47.032;15.398;2023-07-13T08:32:49;2.40;;;1.20;;
12145;SDS011;6136;47.032;15.398;2023-07-13T08:35:18;1.15;;;1.15;;
12145;SDS011;6136;47.032;15.398;2023-07-13T08:37:46;1.20;;;1.10;;
12145;SDS011;6136;47.032;15.398;2023-07-13T08:40:14;1.30;;;1.20;;
12145;SDS011;6136;47.032;15.398;2023-07-13T08:42:49;1.15;;;1.10;;
12145;SDS011;6136;47.032;15.398;2023-07-13T08:45:22;1.30;;;1.20;;
12145;SDS011;6136;47.032;15.398;2023-07-13T08:48:02;1.17;;;1.10;;
12145;SDS011;6136;47.032;15.398;2023-07-13T08:50:38;1.48;;;1.38;;
12145;SDS011;6136;47.032;15.398;2023-07-13T08:53:25;1.30;;;1.20;;
12145;SDS011;6136;47.032;15.398;2023-07-13T08:56:01;1.30;;;1.20;;
12145;SDS011;6136;47.032;15.398;2023-07-13T08:58:32;2.92;;;1.00;;
12145;SDS011;6136;47.032;15.398;2023-07-13T09:01:02;1.98;;;1.17;;
12145;SDS011;6136;47.032;15.398;2023-07-13T09:03:42;1.30;;;1.20;;
12145;SDS011;6136;47.032;15.398;2023-07-13T09:06:20;1.73;;;1.30;;
12145;SDS011;6136;47.032;15.398;2023-07-13T09:08:56;2.90;;;1.50;;
12145;SDS011;6136;47.032;15.398;2023-07-13T09:11:38;1.65;;;1.30;;
12145;SDS011;6136;47.032;15.398;2023-07-13T09:14:23;1.23;;;1.13;;
12145;SDS011;6136;47.032;15.398;2023-07-13T09:17:03;1.40;;;1.30;;
12145;SDS011;6136;47.032;15.398;2023-07-13T09:19:33;1.40;;;1.30;;
12145;SDS011;6136;47.032;15.398;2023-07-13T09:22:03;1.67;;;1.50;;
12145;SDS011;6136;47.032;15.398;2023-07-13T09:24:37;1.33;;;1.30;;
12145;SDS011;6136;47.032;15.398;2023-07-13T09:27:11;1.27;;;1.17;;
12145;SDS011;6136;47.032;15.398;2023-07-13T09:29:45;2.15;;;1.42;;
12145;SDS011;6136;47.032;15.398;2023-07-13T09:32:18;1.63;;;1.23;;
12145;SDS011;6136;47.032;15.398;2023-07-13T09:34:53;2.88;;;1.20;;
12145;SDS011;6136;47.032;15.398;2023-07-13T09:37:23;1.33;;;1.23;;
12145;SDS011;6136;47.032;15.398;2023-07-13T09:39:57;1.05;;;1.05;;
12145;SDS011;6136;47.032;15.398;2023-07-13T09:42:31;1.20;;;1.08;;
12145;SDS011;6136;47.032;15.398;2023-07-13T09:45:01;1.10;;;1.10;;
12145;SDS011;6136;47.032;15.398;2023-07-13T09:47:31;1.45;;;1.35;;
12145;SDS011;6136;47.032;15.398;2023-07-13T09:50:15;1.20;;;1.20;;
12145;SDS011;6136;47.032;15.398;2023-07-13T09:52:45;1.55;;;1.40;;
12145;SDS011;6136;47.032;15.398;2023-07-13T09:55:22;1.20;;;1.20;;
12145;SDS011;6136;47.032;15.398;2023-07-13T09:57:52;1.33;;;1.23;;
12145;SDS011;6136;47.032;15.398;2023-07-13T10:00:21;2.72;;;1.45;;
12145;SDS011;6136;47.032;15.398;2023-07-13T10:02:59;1.40;;;1.30;;
12145;SDS011;6136;47.032;15.398;2023-07-13T10:05:41;1.70;;;1.60;;
12145;SDS011;6136;47.032;15.398;2023-07-13T10:08:21;1.50;;;1.40;;
12145;SDS011;6136;47.032;15.398;2023-07-13T10:10:57;1.75;;;1.52;;
12145;SDS011;6136;47.032;15.398;2023-07-13T10:13:28;1.40;;;1.30;;
12145;SDS011;6136;47.032;15.398;2023-07-13T10:16:00;1.50;;;1.40;;
12145;SDS011;6136;47.032;15.398;2023-07-13T10:18:34;1.60;;;1.25;;
12145;SDS011;6136;47.032;15.398;2023-07-13T10:21:13;2.70;;;1.42;;
12145;SDS011;6136;47.032;15.398;2023-07-13T10:23:47;1.48;;;1.38;;
12145;SDS011;6136;47.032;15.398;2023-07-13T10:26:21;1.55;;;1.45;;
12145;SDS011;6136;47.032;15.398;2023-07-13T10:28:54;1.15;;;1.13;;
12145;SDS011;6136;47.032;15.398;2023-07-13T10:31:26;1.60;;;1.50;;
12145;SDS011;6136;47.032;15.398;2023-07-13T10:33:55;1.52;;;1.42;;
12145;SDS011;6136;47.032;15.398;2023-07-13T10:36:30;1.60;;;1.50;;
12145;SDS011;6136;47.032;15.398;2023-07-13T10:39:02;1.85;;;1.50;;
12145;SDS011;6136;47.032;15.398;2023-07-13T10:41:34;1.48;;;1.38;;
12145;SDS011;6136;47.032;15.398;2023-07-13T10:44:07;1.33;;;1.30;;
12145;SDS011;6136;47.032;15.398;2023-07-13T10:46:46;1.30;;;1.20;;
12145;SDS011;6136;47.032;15.398;2023-07-13T10:49:15;1.80;;;1.70;;
12145;SDS011;6136;47.032;15.398;2023-07-13T10:51:46;1.95;;;1.50;;
12145;SDS011;6136;47.032;15.398;2023-07-13T10:54:16;1.70;;;1.60;;
12145;SDS011;6136;47.032;15.398;2023-07-13T10:56:49;1.60;;;1.50;;
12145;SDS011;6136;47.032;15.398;2023-07-13T10:59:20;1.67;;;1.40;;
12145;SDS011;6136;47.032;15.398;2023-07-13T11:01:55;1.60;;;1.50;;
12145;SDS011;6136;47.032;15.398;2023-07-13T11:04:26;1.50;;;1.40;;
12145;SDS011;6136;47.032;15.398;2023-07-13T11:06:59;1.60;;;1.50;;
12145;SDS011;6136;47.032;15.398;2023-07-13T11:09:38;1.63;;;1.52;;
12145;SDS011;6136;47.032;15.398;2023-07-13T11:12:26;2.80;;;1.67;;
12145;SDS011;6136;47.032;15.398;2023-07-13T11:15:12;1.50;;;1.40;;
12145;SDS011;6136;47.032;15.398;2023-07-13T11:17:50;2.00;;;1.40;;
12145;SDS011;6136;47.032;15.398;2023-07-13T11:20:32;1.45;;;1.35;;
12145;SDS011;6136;47.032;15.398;2023-07-13T11:26:00;1.70;;;1.60;;
12145;SDS011;6136;47.032;15.398;2023-07-13T11:28:30;1.88;;;1.77;;
12145;SDS011;6136;47.032;15.398;2023-07-13T11:33:51;5.75;;;1.63;;
12145;SDS011;6136;47.032;15.398;2023-07-13T11:36:23;3.00;;;1.50;;
12145;SDS011;6136;47.032;15.398;2023-07-13T11:39:01;2.25;;;1.40;;
12145;SDS011;6136;47.032;15.398;2023-07-13T11:41:33;1.38;;;1.27;;
12145;SDS011;6136;47.032;15.398;2023-07-13T11:44:11;1.52;;;1.40;;
12145;SDS011;6136;47.032;15.398;2023-07-13T11:46:44;1.92;;;1.40;;
12145;SDS011;6136;47.032;15.398;2023-07-13T11:49:17;1.60;;;1.42;;
12145;SDS011;6136;47.032;15.398;2023-07-13T11:51:49;1.27;;;1.17;;
12145;SDS011;6136;47.032;15.398;2023-07-13T11:54:26;1.67;;;1.58;;
12145;SDS011;6136;47.032;15.398;2023-07-13T11:56:57;2.05;;;1.67;;
12145;SDS011;6136;47.032;15.398;2023-07-13T11:59:29;1.50;;;1.40;;
12145;SDS011;6136;47.032;15.398;2023-07-13T12:01:59;2.33;;;1.77;;
12145;SDS011;6136;47.032;15.398;2023-07-13T12:04:30;1.60;;;1.50;;
12145;SDS011;6136;47.032;15.398;2023-07-13T12:07:04;1.60;;;1.50;;
12145;SDS011;6136;47.032;15.398;2023-07-13T12:09:37;1.50;;;1.40;;
12145;SDS011;6136;47.032;15.398;2023-07-13T12:12:10;1.50;;;1.40;;
12145;SDS011;6136;47.032;15.398;2023-07-13T12:14:40;1.80;;;1.70;;
12145;SDS011;6136;47.032;15.398;2023-07-13T12:17:09;1.30;;;1.30;;
12145;SDS011;6136;47.032;15.398;2023-07-13T12:19:40;3.85;;;1.63;;
12145;SDS011;6136;47.032;15.398;2023-07-13T12:22:09;1.83;;;1.52;;
12145;SDS011;6136;47.032;15.398;2023-07-13T12:24:42;1.80;;;1.70;;
12145;SDS011;6136;47.032;15.398;2023-07-13T12:29:50;1.67;;;1.58;;
12145;SDS011;6136;47.032;15.398;2023-07-13T12:32:21;2.08;;;1.77;;
12145;SDS011;6136;47.032;15.398;2023-07-13T12:34:52;1.90;;;1.80;;
12145;SDS011;6136;47.032;15.398;2023-07-13T12:37:22;2.17;;;1.95;;
12145;SDS011;6136;47.032;15.398;2023-07-13T12:39:53;1.67;;;1.58;;
12145;SDS011;6136;47.032;15.398;2023-07-13T12:42:22;1.50;;;1.40;;
12145;SDS011;6136;47.032;15.398;2023-07-13T12:44:56;3.95;;;1.75;;
12145;SDS011;6136;47.032;15.398;2023-07-13T12:47:26;1.60;;;1.50;;
12145;SDS011;6136;47.032;15.398;2023-07-13T12:49:55;1.73;;;1.63;;
12145;SDS011;6136;47.032;15.398;2023-07-13T12:52:28;2.08;;;1.50;;
12145;SDS011;6136;47.032;15.398;2023-07-13T12:55:03;1.80;;;1.48;;
12145;SDS011;6136;47.032;15.398;2023-07-13T12:57:37;1.30;;;1.30;;
12145;SDS011;6136;47.032;15.398;2023-07-13T13:00:18;1.63;;;1.52;;
12145;SDS011;6136;47.032;15.398;2023-07-13T13:02:52;1.70;;;1.60;;
12145;SDS011;6136;47.032;15.398;2023-07-13T13:05:33;2.47;;;1.67;;
12145;SDS011;6136;47.032;15.398;2023-07-13T13:08:04;1.70;;;1.60;;
12145;SDS011;6136;47.032;15.398;2023-07-13T13:10:34;2.00;;;1.88;;
12145;SDS011;6136;47.032;15.398;2023-07-13T13:13:02;2.20;;;1.48;;
12145;SDS011;6136;47.032;15.398;2023-07-13T13:15:30;1.63;;;1.50;;
12145;SDS011;6136;47.032;15.398;2023-07-13T13:17:59;1.92;;;1.70;;
12145;SDS011;6136;47.032;15.398;2023-07-13T13:20:27;1.80;;;1.67;;
12145;SDS011;6136;47.032;15.398;2023-07-13T13:22:55;1.50;;;1.40;;
12145;SDS011;6136;47.032;15.398;2023-07-13T13:25:23;2.42;;;1.67;;
12145;SDS011;6136;47.032;15.398;2023-07-13T13:27:54;1.92;;;1.67;;
12145;SDS011;6136;47.032;15.398;2023-07-13T13:30:23;2.17;;;2.00;;
12145;SDS011;6136;47.032;15.398;2023-07-13T13:32:51;2.13;;;1.92;;
12145;SDS011;6136;47.032;15.398;2023-07-13T13:35:20;1.70;;;1.60;;
12145;SDS011;6136;47.032;15.398;2023-07-13T13:37:48;1.77;;;1.65;;
12145;SDS011;6136;47.032;15.398;2023-07-13T13:40:18;3.13;;;1.83;;
12145;SDS011;6136;47.032;15.398;2023-07-13T13:42:47;1.63;;;1.52;;
12145;SDS011;6136;47.032;15.398;2023-07-13T13:45:17;1.65;;;1.50;;
12145;SDS011;6136;47.032;15.398;2023-07-13T13:47:47;1.65;;;1.55;;
12145;SDS011;6136;47.032;15.398;2023-07-13T13:50:16;1.58;;;1.48;;
12145;SDS011;6136;47.032;15.398;2023-07-13T13:52:48;1.67;;;1.58;;
12145;SDS011;6136;47.032;15.398;2023-07-13T13:55:17;1.67;;;1.58;;
12145;SDS011;6136;47.032;15.398;2023-07-13T13:57:47;1.98;;;1.60;;
12145;SDS011;6136;47.032;15.398;2023-07-13T14:00:20;1.95;;;1.70;;
12145;SDS011;6136;47.032;15.398;2023-07-13T14:02:48;5.40;;;1.80;;
12145;SDS011;6136;47.032;15.398;2023-07-13T14:05:21;1.50;;;1.40;;
12145;SDS011;6136;47.032;15.398;2023-07-13T14:07:52;1.48;;;1.38;;
12145;SDS011;6136;47.032;15.398;2023-07-13T14:10:20;2.45;;;1.70;;
12145;SDS011;6136;47.032;15.398;2023-07-13T14:12:52;1.83;;;1.63;;
12145;SDS011;6136;47.032;15.398;2023-07-13T14:15:24;1.60;;;1.50;;
12145;SDS011;6136;47.032;15.398;2023-07-13T14:18:00;1.85;;;1.40;;
12145;SDS011;6136;47.032;15.398;2023-07-13T14:20:28;1.50;;;1.40;;
12145;SDS011;6136;47.032;15.398;2023-07-13T14:22:56;1.90;;;1.70;;
12145;SDS011;6136;47.032;15.398;2023-07-13T14:25:25;2.72;;;1.70;;
12145;SDS011;6136;47.032;15.398;2023-07-13T14:27:55;1.73;;;1.58;;
12145;SDS011;6136;47.032;15.398;2023-07-13T14:30:28;1.67;;;1.58;;
12145;SDS011;6136;47.032;15.398;2023-07-13T14:32:57;1.42;;;1.33;;
12145;SDS011;6136;47.032;15.398;2023-07-13T14:35:25;2.17;;;2.03;;
12145;SDS011;6136;47.032;15.398;2023-07-13T14:37:53;1.98;;;1.70;;
12145;SDS011;6136;47.032;15.398;2023-07-13T14:40:24;4.63;;;1.85;;
12145;SDS011;6136;47.032;15.398;2023-07-13T14:42:57;1.95;;;1.73;;
12145;SDS011;6136;47.032;15.398;2023-07-13T14:45:26;1.80;;;1.63;;
12145;SDS011;6136;47.032;15.398;2023-07-13T14:47:57;2.17;;;1.58;;
12145;SDS011;6136;47.032;15.398;2023-07-13T14:50:27;4.55;;;1.67;;
12145;SDS011;6136;47.032;15.398;2023-07-13T14:52:58;2.55;;;1.45;;
12145;SDS011;6136;47.032;15.398;2023-07-13T14:55:27;1.58;;;1.48;;
12145;SDS011;6136;47.032;15.398;2023-07-13T14:57:55;1.65;;;1.40;;
12145;SDS011;6136;47.032;15.398;2023-07-13T15:00:24;1.63;;;1.52;;
12145;SDS011;6136;47.032;15.398;2023-07-13T15:02:56;5.13;;;1.75;;
12145;SDS011;6136;47.032;15.398;2023-07-13T15:05:28;4.32;;;1.90;;
12145;SDS011;6136;47.032;15.398;2023-07-13T15:07:59;2.20;;;1.80;;
12145;SDS011;6136;47.032;15.398;2023-07-13T15:10:30;2.28;;;1.80;;
12145;SDS011;6136;47.032;15.398;2023-07-13T15:13:00;2.72;;;1.42;;
12145;SDS011;6136;47.032;15.398;2023-07-13T15:15:40;1.85;;;1.50;;
12145;SDS011;6136;47.032;15.398;2023-07-13T15:18:14;3.42;;;1.60;;
12145;SDS011;6136;47.032;15.398;2023-07-13T15:20:44;3.40;;;1.70;;